Time;durP1;ratioP1;P1;durP2;ratioP2;P2;SDS_P1;SDS_P2;PMS_P1;PMS_P2;Temp;Humidity;BMP_temperature;BMP_pressure;BME280_temperature;BME280_humidity;BME280_pressure;Samples;Min_cycle;Max_cycle;Signal;HPM_P1;HPM_P2
2021/06/01 00:01:59;;;;;;;4.80;4.18;;;10.20;99.90;;;;;;5108646;28;20222;-72
2021/06/01 00:04:25;;;;;;;4.00;3.20;;;10.20;99.90;;;;;;5108341;28;20206;-72
2021/06/01 00:06:51;;;;;;;4.15;3.50;;;10.20;99.90;;;;;;5106745;28;20206;-72
2021/06/01 00:09:20;;;;;;;4.82;3.90;;;10.20;99.90;;;;;;5087591;28;20234;-72
2021/06/01 00:11:48;;;;;;;4.13;3.65;;;10.20;99.90;;;;;;5088045;28;20715;-72
2021/06/01 00:14:15;;;;;;;3.92;3.63;;;10.10;99.90;;;;;;5088136;28;20722;-72
2021/06/01 00:16:42;;;;;;;4.18;3.88;;;10.10;99.90;;;;;;5088024;28;20282;-72
2021/06/01 00:19:09;;;;;;;4.38;3.97;;;10.00;99.90;;;;;;5087539;28;20635;-71
2021/06/01 00:21:36;;;;;;;5.25;4.03;;;9.90;99.90;;;;;;5087966;28;20239;-70
2021/06/01 00:24:03;;;;;;;6.00;3.90;;;9.90;99.90;;;;;;5087838;28;20195;-71
2021/06/01 00:26:29;;;;;;;4.55;4.00;;;9.90;99.90;;;;;;5088034;28;20204;-71
2021/06/01 00:28:57;;;;;;;5.45;4.05;;;9.90;99.90;;;;;;5087747;28;20211;-71
2021/06/01 00:31:23;;;;;;;4.72;3.90;;;9.90;99.90;;;;;;5087531;28;20227;-70
2021/06/01 00:33:50;;;;;;;4.45;3.83;;;9.80;99.90;;;;;;5087842;28;20204;-70
2021/06/01 00:36:16;;;;;;;3.95;3.60;;;9.80;99.90;;;;;;5087620;28;20246;-71
2021/06/01 00:38:42;;;;;;;4.60;3.40;;;9.80;99.90;;;;;;5087677;28;20581;-71
2021/06/01 00:41:08;;;;;;;4.75;3.50;;;9.70;99.90;;;;;;5095769;28;20222;-70
2021/06/01 00:43:35;;;;;;;3.55;3.25;;;9.60;99.90;;;;;;5107981;28;20670;-71
2021/06/01 00:46:02;;;;;;;4.43;4.00;;;9.60;99.90;;;;;;5107852;28;20219;-71
2021/06/01 00:48:29;;;;;;;3.88;3.58;;;9.60;99.90;;;;;;5107591;28;20670;-71
2021/06/01 00:50:55;;;;;;;4.30;3.90;;;9.60;99.90;;;;;;5107824;28;20231;-71
2021/06/01 00:53:22;;;;;;;5.45;4.25;;;9.60;99.90;;;;;;5109094;28;20209;-70
2021/06/01 00:55:48;;;;;;;4.05;3.75;;;9.50;99.90;;;;;;5112585;28;20256;-71
2021/06/01 00:58:14;;;;;;;4.40;4.00;;;9.40;99.90;;;;;;5113422;28;20214;-71
2021/06/01 01:03:22;;;;;;;4.80;4.07;;;9.50;99.90;;;;;;5098673;28;20211;-71
2021/06/01 01:05:51;;;;;;;4.78;4.13;;;9.40;99.90;;;;;;5094417;28;20204;-71
2021/06/01 01:08:44;;;;;;;3.58;3.28;;;9.40;99.90;;;;;;5093979;28;20292;-71
2021/06/01 01:11:15;;;;;;;3.75;3.45;;;9.30;99.90;;;;;;5094157;28;20223;-71
2021/06/01 01:13:47;;;;;;;3.40;3.10;;;9.20;99.90;;;;;;5093869;28;20218;-71
2021/06/01 01:16:15;;;;;;;3.50;3.20;;;9.30;99.90;;;;;;5094272;28;20224;-71
2021/06/01 01:18:50;;;;;;;4.40;3.83;;;9.30;99.90;;;;;;5093556;28;20722;-71
2021/06/01 01:21:21;;;;;;;4.22;3.83;;;9.20;99.90;;;;;;5093874;28;20227;-71
2021/06/01 01:23:55;;;;;;;4.00;3.60;;;9.20;99.90;;;;;;5093933;28;20667;-71
2021/06/01 01:26:38;;;;;;;7.32;4.50;;;9.20;99.90;;;;;;5101102;28;20211;-71
2021/06/01 01:29:12;;;;;;;3.97;3.63;;;9.10;99.90;;;;;;5113981;28;20210;-71
2021/06/01 01:31:46;;;;;;;3.72;3.42;;;9.10;99.90;;;;;;5114217;28;20296;-71
2021/06/01 01:34:15;;;;;;;3.60;3.30;;;9.10;99.90;;;;;;5114247;28;20312;-71
2021/06/01 01:36:44;;;;;;;4.10;3.60;;;9.10;99.90;;;;;;5113902;28;20275;-71
2021/06/01 01:39:11;;;;;;;3.95;3.55;;;9.10;99.90;;;;;;5113708;28;20674;-71
2021/06/01 01:41:39;;;;;;;4.50;3.42;;;9.00;99.90;;;;;;5112112;28;20246;-71
2021/06/01 01:44:09;;;;;;;4.65;3.95;;;9.00;99.90;;;;;;5111569;28;20207;-71
2021/06/01 01:46:52;;;;;;;4.05;3.65;;;9.00;99.90;;;;;;5112148;28;20215;-71
2021/06/01 01:49:22;;;;;;;4.05;3.65;;;8.90;99.90;;;;;;5112221;28;20275;-71
2021/06/01 01:51:52;;;;;;;4.45;4.05;;;8.90;99.90;;;;;;5112172;28;20597;-71
2021/06/01 01:54:19;;;;;;;5.18;3.70;;;8.80;99.90;;;;;;5112280;28;20583;-71
2021/06/01 01:56:50;;;;;;;4.07;3.67;;;8.70;99.90;;;;;;5112179;28;20616;-71
2021/06/01 01:59:18;;;;;;;4.10;3.80;;;8.80;99.90;;;;;;5113496;28;20688;-71
2021/06/01 02:01:47;;;;;;;6.45;3.92;;;8.80;99.90;;;;;;5113425;28;20345;-72
2021/06/01 02:04:16;;;;;;;4.03;3.50;;;8.70;99.90;;;;;;5113079;28;20670;-71
2021/06/01 02:06:44;;;;;;;3.80;3.50;;;8.70;99.90;;;;;;5113457;28;20219;-71
2021/06/01 02:09:11;;;;;;;5.45;3.80;;;8.70;99.90;;;;;;5113193;28;20214;-72
2021/06/01 02:11:37;;;;;;;4.13;3.72;;;8.80;99.90;;;;;;5113415;28;20276;-71
2021/06/01 02:14:04;;;;;;;4.28;3.88;;;8.70;99.90;;;;;;5113330;28;20210;-71
2021/06/01 02:16:31;;;;;;;4.20;3.90;;;8.70;99.90;;;;;;5113193;28;20218;-71
2021/06/01 02:18:57;;;;;;;3.97;3.58;;;8.70;99.90;;;;;;5113100;28;20207;-71
2021/06/01 02:21:35;;;;;;;4.38;3.97;;;8.70;99.90;;;;;;5113282;27;20221;-71
2021/06/01 02:24:07;;;;;;;3.90;3.55;;;8.60;99.90;;;;;;5113359;28;20198;-72
2021/06/01 02:26:46;;;;;;;4.30;3.90;;;8.60;99.90;;;;;;5113076;28;20196;-71
2021/06/01 02:29:22;;;;;;;4.40;3.78;;;8.60;99.90;;;;;;5112869;28;20202;-71
2021/06/01 02:31:50;;;;;;;4.75;3.85;;;8.50;99.90;;;;;;5112960;28;20249;-72
2021/06/01 02:34:18;;;;;;;5.00;3.97;;;8.40;99.90;;;;;;5112977;28;20198;-72
2021/06/01 02:36:46;;;;;;;5.22;4.72;;;8.40;99.90;;;;;;5113145;28;20215;-72
2021/06/01 02:39:15;;;;;;;4.20;3.90;;;8.40;99.90;;;;;;5112796;28;20198;-72
2021/06/01 02:41:43;;;;;;;4.50;3.85;;;8.40;99.90;;;;;;5112676;28;20223;-72
2021/06/01 02:44:11;;;;;;;5.15;4.65;;;8.30;99.90;;;;;;5112974;28;20202;-72
2021/06/01 02:46:39;;;;;;;4.40;3.60;;;8.40;99.90;;;;;;5112738;28;20199;-72
2021/06/01 02:49:06;;;;;;;4.15;3.75;;;8.40;99.90;;;;;;5112356;28;20199;-72
2021/06/01 02:51:33;;;;;;;4.97;3.70;;;8.40;99.90;;;;;;5112441;28;20227;-72
2021/06/01 02:54:00;;;;;;;7.13;4.00;;;8.40;99.90;;;;;;5112549;28;20228;-72
2021/06/01 02:56:28;;;;;;;4.32;3.90;;;8.40;99.90;;;;;;5112513;28;20704;-72
2021/06/01 02:58:56;;;;;;;5.90;3.95;;;8.40;99.90;;;;;;5112406;28;20620;-72
2021/06/01 03:01:24;;;;;;;5.15;4.07;;;8.30;99.90;;;;;;5112361;28;20222;-72
2021/06/01 03:03:52;;;;;;;4.95;4.45;;;8.30;99.90;;;;;;5112513;28;20199;-72
2021/06/01 03:06:20;;;;;;;5.22;4.00;;;8.20;99.90;;;;;;5112323;28;20236;-72
2021/06/01 03:08:46;;;;;;;4.20;3.90;;;8.10;99.90;;;;;;5111914;28;20202;-72
2021/06/01 03:11:15;;;;;;;5.10;4.22;;;8.10;99.90;;;;;;5111306;28;20249;-72
2021/06/01 03:13:43;;;;;;;6.28;4.65;;;8.10;99.90;;;;;;5111152;28;20663;-72
2021/06/01 03:16:10;;;;;;;3.92;3.63;;;8.10;99.90;;;;;;5111384;28;20202;-72
2021/06/01 03:18:36;;;;;;;6.80;4.38;;;8.10;99.90;;;;;;5111665;28;20203;-72
2021/06/01 03:21:03;;;;;;;4.82;4.07;;;8.10;99.90;;;;;;5112043;28;20682;-72
2021/06/01 03:23:30;;;;;;;5.05;3.75;;;8.10;99.90;;;;;;5111738;28;20244;-72
2021/06/01 03:25:56;;;;;;;4.13;3.72;;;8.10;99.90;;;;;;5112052;28;20259;-72
2021/06/01 03:28:23;;;;;;;4.72;3.90;;;8.10;99.90;;;;;;5111678;28;20199;-72
2021/06/01 03:30:51;;;;;;;5.07;4.45;;;8.10;99.90;;;;;;5111781;28;20284;-72
2021/06/01 03:33:18;;;;;;;4.65;4.10;;;8.00;99.90;;;;;;5112201;28;20562;-71
2021/06/01 03:35:44;;;;;;;4.45;4.05;;;8.10;99.90;;;;;;5111640;28;20191;-71
2021/06/01 03:38:11;;;;;;;4.47;4.00;;;8.10;99.90;;;;;;5111467;28;20223;-71
2021/06/01 03:40:38;;;;;;;4.30;3.85;;;8.00;99.90;;;;;;5111549;28;20729;-71
2021/06/01 03:43:05;;;;;;;4.47;3.95;;;8.00;99.90;;;;;;5111693;28;20746;-72
2021/06/01 03:45:33;;;;;;;4.50;4.10;;;8.00;99.90;;;;;;5111776;28;20199;-72
2021/06/01 03:48:01;;;;;;;4.40;4.00;;;7.90;99.90;;;;;;5111501;28;20782;-72
2021/06/01 03:50:27;;;;;;;4.03;3.65;;;7.90;99.90;;;;;;5111300;28;20670;-72
2021/06/01 03:52:54;;;;;;;5.78;4.05;;;8.00;99.90;;;;;;5111850;28;20199;-71
2021/06/01 03:55:20;;;;;;;4.97;4.50;;;7.90;99.90;;;;;;5110916;28;20469;-70
2021/06/01 03:57:48;;;;;;;5.88;5.13;;;7.90;99.90;;;;;;5111126;28;20223;-70
2021/06/01 04:00:17;;;;;;;3.40;3.10;;;8.00;99.90;;;;;;5111327;28;20205;-69
2021/06/01 04:02:44;;;;;;;4.72;4.28;;;8.00;99.90;;;;;;5111338;28;20199;-69
2021/06/01 04:05:12;;;;;;;5.15;4.07;;;8.00;99.90;;;;;;5111110;28;20207;-70
2021/06/01 04:07:38;;;;;;;3.97;3.58;;;8.00;99.90;;;;;;5111102;28;20316;-69
2021/06/01 04:10:06;;;;;;;4.00;3.70;;;8.00;99.90;;;;;;5111072;28;20738;-70
2021/06/01 04:12:32;;;;;;;7.20;3.90;;;8.00;99.90;;;;;;5111051;28;20195;-70
2021/06/01 04:14:59;;;;;;;4.75;4.15;;;8.00;99.90;;;;;;5111249;28;20206;-71
2021/06/01 04:17:25;;;;;;;5.00;4.60;;;8.00;99.90;;;;;;5110785;28;20218;-71
2021/06/01 04:19:51;;;;;;;5.13;4.63;;;8.10;99.90;;;;;;5110615;28;20207;-70
2021/06/01 04:22:19;;;;;;;6.47;4.20;;;8.10;99.90;;;;;;5110131;28;20774;-70
2021/06/01 04:24:45;;;;;;;4.90;4.13;;;8.10;99.90;;;;;;5110406;28;20202;-71
2021/06/01 04:27:11;;;;;;;4.50;4.10;;;8.10;99.90;;;;;;5110242;28;20203;-71
2021/06/01 04:29:37;;;;;;;6.10;5.10;;;8.10;99.90;;;;;;5110180;28;20195;-70
2021/06/01 04:32:04;;;;;;;5.55;3.90;;;8.20;99.90;;;;;;5110371;28;20218;-71
2021/06/01 04:34:31;;;;;;;5.05;4.20;;;8.20;99.90;;;;;;5110321;28;20203;-71
2021/06/01 04:36:57;;;;;;;5.05;4.55;;;8.20;99.90;;;;;;5110916;28;20226;-71
2021/06/01 04:39:24;;;;;;;5.22;4.30;;;8.30;99.90;;;;;;5110710;28;20206;-71
2021/06/01 04:41:51;;;;;;;6.05;5.00;;;8.30;99.90;;;;;;5110824;28;20223;-71
2021/06/01 04:44:17;;;;;;;5.38;4.35;;;8.40;99.90;;;;;;5111016;28;20571;-71
2021/06/01 04:46:43;;;;;;;4.35;3.80;;;8.40;99.90;;;;;;5110745;28;20579;-71
2021/06/01 04:49:09;;;;;;;6.45;5.03;;;8.50;99.90;;;;;;5110582;28;20203;-71
2021/06/01 04:51:35;;;;;;;4.30;3.90;;;8.50;99.90;;;;;;5110538;28;20231;-70
2021/06/01 04:54:02;;;;;;;5.68;4.70;;;8.60;99.90;;;;;;5110868;28;20202;-71
2021/06/01 04:56:30;;;;;;;4.35;3.95;;;8.70;99.90;;;;;;5110622;28;20206;-71
2021/06/01 04:58:57;;;;;;;4.35;3.95;;;8.80;99.90;;;;;;5110573;28;20542;-71
2021/06/01 05:01:24;;;;;;;4.55;4.15;;;8.80;99.90;;;;;;5110797;28;20226;-71
2021/06/01 05:03:50;;;;;;;4.38;3.95;;;8.90;99.90;;;;;;5110389;28;20343;-71
2021/06/01 05:06:17;;;;;;;4.40;4.00;;;9.00;99.90;;;;;;5097910;28;20568;-71
2021/06/01 05:08:43;;;;;;;4.43;4.03;;;9.20;99.90;;;;;;5087843;28;20209;-71
2021/06/01 05:11:10;;;;;;;4.75;4.05;;;9.30;99.90;;;;;;5090612;28;20223;-71
2021/06/01 05:13:37;;;;;;;4.22;3.90;;;9.50;99.90;;;;;;5090549;28;20204;-72
2021/06/01 05:16:04;;;;;;;5.30;4.00;;;9.80;99.90;;;;;;5090247;28;20196;-71
2021/06/01 05:18:30;;;;;;;6.50;4.60;;;10.00;99.90;;;;;;5089865;28;20230;-71
2021/06/01 05:20:57;;;;;;;4.30;3.90;;;10.20;99.90;;;;;;5090196;28;20224;-71
2021/06/01 05:23:23;;;;;;;5.93;3.95;;;10.30;99.90;;;;;;5090178;28;20203;-71
2021/06/01 05:25:49;;;;;;;4.70;4.10;;;10.40;99.90;;;;;;5090120;28;20237;-71
2021/06/01 05:28:16;;;;;;;5.38;3.72;;;10.60;99.90;;;;;;5090048;28;20200;-71
2021/06/01 05:30:48;;;;;;;9.35;4.10;;;10.70;99.90;;;;;;5089817;28;20220;-71
2021/06/01 05:33:17;;;;;;;7.45;3.58;;;10.70;99.90;;;;;;5090663;28;20537;-72
2021/06/01 05:35:51;;;;;;;4.53;4.07;;;10.80;99.90;;;;;;5090130;28;20208;-70
2021/06/01 05:38:17;;;;;;;4.43;4.03;;;10.90;99.90;;;;;;5089802;28;20655;-71
2021/06/01 05:40:44;;;;;;;7.78;3.55;;;11.00;99.90;;;;;;5093241;28;20219;-70
2021/06/01 05:43:10;;;;;;;3.90;3.60;;;11.10;99.90;;;;;;5093682;28;20200;-71
2021/06/01 05:45:37;;;;;;;4.28;3.55;;;11.20;99.90;;;;;;5093593;28;20564;-72
2021/06/01 05:48:05;;;;;;;5.85;3.80;;;11.30;99.90;;;;;;5093332;28;20546;-71
2021/06/01 05:50:32;;;;;;;3.35;3.05;;;11.30;99.90;;;;;;5093101;28;20239;-71
2021/06/01 05:52:59;;;;;;;4.13;3.73;;;11.40;99.90;;;;;;5093553;28;20195;-71
2021/06/01 05:55:25;;;;;;;4.13;3.72;;;11.40;99.90;;;;;;5093297;28;20457;-71
2021/06/01 05:57:52;;;;;;;4.07;3.67;;;11.50;99.90;;;;;;5093291;28;20247;-72
2021/06/01 06:00:19;;;;;;;4.33;3.73;;;11.60;99.90;;;;;;5093479;28;20824;-72
2021/06/01 06:02:45;;;;;;;3.97;3.60;;;11.70;99.90;;;;;;5093280;28;20462;-71
2021/06/01 06:05:14;;;;;;;4.07;3.70;;;11.80;99.90;;;;;;5093342;28;20983;-71
2021/06/01 06:07:40;;;;;;;3.87;3.57;;;11.90;99.90;;;;;;5093097;28;20461;-72
2021/06/01 06:10:08;;;;;;;4.30;3.80;;;12.00;99.90;;;;;;5093325;28;20465;-72
2021/06/01 06:12:35;;;;;;;4.30;3.60;;;12.10;99.90;;;;;;5093282;28;20974;-72
2021/06/01 06:15:01;;;;;;;3.40;3.10;;;12.20;99.90;;;;;;5093285;28;20506;-72
2021/06/01 06:17:34;;;;;;;4.80;3.90;;;12.30;99.90;;;;;;5093011;28;20996;-72
2021/06/01 06:20:01;;;;;;;4.03;3.73;;;12.40;99.90;;;;;;5092912;28;20464;-72
2021/06/01 06:22:28;;;;;;;3.67;3.37;;;12.50;99.90;;;;;;5092904;28;20465;-72
2021/06/01 06:24:55;;;;;;;6.90;3.70;;;12.60;99.90;;;;;;5093102;28;20458;-72
2021/06/01 06:27:21;;;;;;;4.00;3.60;;;12.70;99.90;;;;;;5092928;28;20837;-72
2021/06/01 06:29:47;;;;;;;4.50;3.47;;;12.70;99.90;;;;;;5092163;28;20470;-72
2021/06/01 06:32:13;;;;;;;4.77;3.93;;;12.80;99.90;;;;;;5092859;28;20481;-73
2021/06/01 06:34:40;;;;;;;3.47;3.00;;;12.90;99.90;;;;;;5092486;28;20457;-71
2021/06/01 06:37:06;;;;;;;4.57;3.83;;;13.00;99.90;;;;;;5092594;28;20853;-72
2021/06/01 06:39:34;;;;;;;5.33;3.70;;;13.10;99.90;;;;;;5092101;28;20473;-72
2021/06/01 06:42:00;;;;;;;5.80;4.40;;;13.30;99.90;;;;;;5092591;28;20564;-72
2021/06/01 06:44:27;;;;;;;5.07;3.93;;;13.30;99.90;;;;;;5092443;28;20458;-71
2021/06/01 06:47:05;;;;;;;3.83;3.20;;;13.50;99.90;;;;;;5092579;28;20674;-72
2021/06/01 06:49:32;;;;;;;3.80;3.07;;;13.60;99.90;;;;;;5092111;28;20525;-72
2021/06/01 06:51:59;;;;;;;3.90;3.50;;;13.70;99.90;;;;;;5092084;28;20524;-72
2021/06/01 06:54:25;;;;;;;3.50;3.20;;;13.90;99.90;;;;;;5092236;28;20458;-72
2021/06/01 06:56:53;;;;;;;3.47;3.17;;;14.00;99.90;;;;;;5090910;28;20831;-72
2021/06/01 06:59:19;;;;;;;3.10;2.80;;;14.10;99.90;;;;;;5091938;28;20453;-71
2021/06/01 07:01:45;;;;;;;3.40;3.10;;;14.20;99.50;;;;;;5092164;28;20478;-72
2021/06/01 07:04:11;;;;;;;3.67;3.37;;;14.20;98.90;;;;;;5092050;28;20453;-72
2021/06/01 07:06:38;;;;;;;3.63;3.33;;;14.40;99.40;;;;;;5103362;28;20465;-71
2021/06/01 07:09:05;;;;;;;3.17;2.87;;;14.40;98.80;;;;;;5101213;28;21034;-71
2021/06/01 07:11:31;;;;;;;4.77;3.30;;;14.50;99.60;;;;;;5091750;28;20486;-71
2021/06/01 07:14:10;;;;;;;7.80;2.87;;;14.60;99.80;;;;;;5092249;28;20465;-71
2021/06/01 07:16:37;;;;;;;2.80;2.60;;;14.70;99.40;;;;;;5091806;28;20827;-71
2021/06/01 07:19:03;;;;;;;5.80;3.00;;;14.80;99.60;;;;;;5091820;28;20519;-71
2021/06/01 07:21:29;;;;;;;2.80;2.60;;;15.00;99.80;;;;;;5090447;28;20488;-71
2021/06/01 07:23:56;;;;;;;4.57;3.40;;;15.10;99.10;;;;;;5091745;28;20457;-71
2021/06/01 07:26:22;;;;;;;3.20;2.63;;;15.20;98.40;;;;;;5091693;28;20504;-71
2021/06/01 07:28:48;;;;;;;2.80;2.60;;;15.30;98.50;;;;;;5091233;28;20462;-72
2021/06/01 07:31:16;;;;;;;3.97;2.70;;;15.40;97.80;;;;;;5091560;28;20478;-71
2021/06/01 07:33:44;;;;;;;3.10;2.80;;;15.50;98.10;;;;;;5091313;28;20779;-71
2021/06/01 07:36:10;;;;;;;3.40;3.10;;;15.70;97.00;;;;;;5091720;28;20457;-71
2021/06/01 07:38:37;;;;;;;3.30;3.00;;;15.80;96.00;;;;;;5103675;28;20491;-71
2021/06/01 07:41:04;;;;;;;4.30;2.87;;;15.80;96.10;;;;;;5096984;28;20476;-72
2021/06/01 07:43:30;;;;;;;2.93;2.73;;;15.90;96.50;;;;;;5091775;28;20462;-71
2021/06/01 07:45:57;;;;;;;3.90;3.07;;;16.00;97.10;;;;;;5091209;28;20461;-71
2021/06/01 07:48:25;;;;;;;3.63;3.33;;;16.10;97.40;;;;;;5091016;28;20465;-71
2021/06/01 07:50:52;;;;;;;3.50;2.80;;;16.20;96.40;;;;;;5090605;28;20489;-71
2021/06/01 07:53:18;;;;;;;6.47;3.07;;;16.30;95.40;;;;;;5091127;28;20461;-71
2021/06/01 07:55:44;;;;;;;3.87;2.90;;;16.40;97.00;;;;;;5090829;28;20465;-71
2021/06/01 07:58:11;;;;;;;5.07;2.97;;;16.40;96.80;;;;;;5090648;28;20512;-71
2021/06/01 08:00:37;;;;;;;2.70;2.50;;;16.60;97.20;;;;;;5090427;28;20488;-71
2021/06/01 08:03:04;;;;;;;7.93;2.70;;;16.70;94.20;;;;;;5090321;28;20457;-71
2021/06/01 08:05:31;;;;;;;3.13;2.83;;;16.70;95.00;;;;;;5090717;28;20971;-71
2021/06/01 08:07:58;;;;;;;2.87;2.63;;;16.80;96.60;;;;;;5090555;28;20810;-71
2021/06/01 08:10:25;;;;;;;2.90;2.63;;;16.90;95.90;;;;;;5090456;28;20527;-71
2021/06/01 08:12:53;;;;;;;3.53;2.60;;;17.00;96.70;;;;;;5090610;28;20535;-71
2021/06/01 08:15:22;;;;;;;4.03;2.80;;;17.10;96.50;;;;;;5090695;28;20914;-71
2021/06/01 08:17:52;;;;;;;3.40;3.20;;;17.20;95.70;;;;;;5089977;28;20489;-71
2021/06/01 08:20:29;;;;;;;5.13;2.93;;;17.30;94.80;;;;;;5090943;28;20472;-71
2021/06/01 08:22:57;;;;;;;5.93;2.90;;;17.30;95.00;;;;;;5090629;28;20556;-71
2021/06/01 08:25:23;;;;;;;2.70;2.50;;;17.50;96.10;;;;;;5090832;28;20461;-71
2021/06/01 08:27:50;;;;;;;3.53;3.23;;;17.60;94.80;;;;;;5090219;28;20456;-71
2021/06/01 08:30:17;;;;;;;4.70;2.90;;;17.70;94.90;;;;;;5090440;28;20462;-71
2021/06/01 08:32:43;;;;;;;3.30;2.73;;;17.70;93.70;;;;;;5087881;28;20458;-71
2021/06/01 08:35:10;;;;;;;3.90;2.60;;;17.80;94.90;;;;;;5090404;28;21078;-71
2021/06/01 08:37:36;;;;;;;3.23;2.70;;;17.90;93.80;;;;;;5090685;28;20477;-72
2021/06/01 08:40:05;;;;;;;3.13;2.83;;;18.00;92.70;;;;;;5089812;28;20461;-71
2021/06/01 08:42:33;;;;;;;2.70;2.50;;;18.00;90.90;;;;;;5090970;28;20960;-72
2021/06/01 08:45:00;;;;;;;3.07;2.63;;;18.10;87.20;;;;;;5090452;28;20845;-71
2021/06/01 08:47:27;;;;;;;2.73;2.43;;;18.20;88.00;;;;;;5090536;28;20457;-71
2021/06/01 08:49:53;;;;;;;3.00;2.57;;;18.20;87.50;;;;;;5090460;28;20488;-71
2021/06/01 08:52:20;;;;;;;2.90;2.50;;;18.30;90.30;;;;;;5090346;28;20979;-71
2021/06/01 08:54:46;;;;;;;3.00;2.80;;;18.40;86.60;;;;;;5090850;28;20464;-72
2021/06/01 08:57:14;;;;;;;5.70;2.57;;;18.50;90.30;;;;;;5089628;28;20481;-71
2021/06/01 08:59:41;;;;;;;2.50;2.30;;;18.70;90.10;;;;;;5089674;28;20473;-72
2021/06/01 09:02:08;;;;;;;3.07;2.77;;;18.80;87.60;;;;;;5089515;28;21017;-72
2021/06/01 09:04:44;;;;;;;3.07;2.30;;;18.90;86.30;;;;;;5090051;28;21018;-71
2021/06/01 09:07:15;;;;;;;3.30;2.77;;;19.00;83.10;;;;;;5090152;28;20463;-71
2021/06/01 09:10:04;;;;;;;2.90;2.70;;;18.90;81.70;;;;;;5090444;28;20508;-71
2021/06/01 09:12:35;;;;;;;2.40;2.20;;;18.90;86.80;;;;;;5090543;28;20475;-71
2021/06/01 09:15:27;;;;;;;2.73;2.53;;;19.00;85.90;;;;;;5092218;28;20499;-71
2021/06/01 09:23:18;;;;;;;2.97;2.67;;;19.60;83.80;;;;;;5094459;28;20952;-72
2021/06/01 09:25:48;;;;;;;2.77;2.50;;;19.60;86.30;;;;;;5094063;28;20472;-71
2021/06/01 09:28:17;;;;;;;2.60;2.30;;;19.80;87.30;;;;;;5093332;28;20446;-71
2021/06/01 09:30:46;;;;;;;3.33;2.90;;;20.00;90.00;;;;;;5093576;28;20542;-71
2021/06/01 09:33:27;;;;;;;3.00;2.70;;;20.10;86.20;;;;;;5093509;28;20460;-71
2021/06/01 09:35:56;;;;;;;2.77;2.57;;;20.10;85.70;;;;;;5092847;28;20466;-71
2021/06/01 09:38:24;;;;;;;2.97;2.67;;;20.20;85.10;;;;;;5093149;28;20527;-71
2021/06/01 09:41:03;;;;;;;3.10;2.50;;;20.30;85.20;;;;;;5093440;28;21046;-71
2021/06/01 09:43:31;;;;;;;2.67;2.20;;;20.40;84.70;;;;;;5093487;28;20461;-72
2021/06/01 09:45:58;;;;;;;3.17;2.37;;;20.50;82.70;;;;;;5093285;28;20470;-71
2021/06/01 09:48:25;;;;;;;3.43;2.80;;;20.40;82.10;;;;;;5092975;28;20777;-71
2021/06/01 09:50:54;;;;;;;3.37;2.40;;;20.50;84.30;;;;;;5093048;28;21016;-72
2021/06/01 09:53:25;;;;;;;2.80;2.60;;;20.60;83.50;;;;;;5092850;28;20963;-71
2021/06/01 09:55:52;;;;;;;2.90;2.70;;;20.60;78.90;;;;;;5093273;28;20934;-72
2021/06/01 09:58:25;;;;;;;3.67;2.67;;;20.60;81.50;;;;;;5092698;28;21031;-72
2021/06/01 10:00:53;;;;;;;4.63;2.17;;;20.70;84.20;;;;;;5093059;28;20488;-72
2021/06/01 10:03:21;;;;;;;3.67;2.57;;;20.90;85.10;;;;;;5093130;28;20531;-71
2021/06/01 10:05:49;;;;;;;3.70;2.90;;;21.00;84.20;;;;;;5093125;28;20983;-71
2021/06/01 10:08:17;;;;;;;2.80;2.53;;;21.10;83.40;;;;;;5092670;28;20830;-71
2021/06/01 10:10:50;;;;;;;3.00;2.60;;;21.20;84.50;;;;;;5092694;28;20542;-71
2021/06/01 10:13:16;;;;;;;5.93;2.53;;;21.40;85.90;;;;;;5093031;28;20457;-72
2021/06/01 10:15:42;;;;;;;2.77;2.50;;;21.60;84.60;;;;;;5092883;28;20867;-72
2021/06/01 10:18:12;;;;;;;2.60;2.40;;;21.80;79.70;;;;;;5092188;28;20481;-71
2021/06/01 10:20:40;;;;;;;3.30;2.63;;;21.80;77.30;;;;;;5092831;28;20881;-72
2021/06/01 10:23:08;;;;;;;3.00;2.80;;;21.90;78.40;;;;;;5092292;28;20465;-72
2021/06/01 10:25:35;;;;;;;2.67;2.23;;;21.90;80.00;;;;;;5092225;28;20468;-71
2021/06/01 10:28:03;;;;;;;2.50;2.30;;;22.00;80.10;;;;;;5090259;28;20906;-71
2021/06/01 10:30:32;;;;;;;3.00;2.40;;;22.00;78.40;;;;;;5092657;28;20478;-71
2021/06/01 10:33:02;;;;;;;3.33;2.50;;;22.10;83.30;;;;;;5092123;28;20461;-71
2021/06/01 10:35:34;;;;;;;2.80;2.20;;;22.00;79.90;;;;;;5092633;28;20454;-71
2021/06/01 10:44:20;;;;;;;2.47;2.27;;;22.30;81.70;;;;;;5091955;28;20445;-70
2021/06/01 10:52:22;;;;;;;4.50;2.90;;;22.30;75.10;;;;;;5092051;28;20469;-69
2021/06/01 10:54:57;;;;;;;2.90;2.60;;;22.30;81.20;;;;;;5091658;28;20465;-69
2021/06/01 10:57:24;;;;;;;3.90;2.70;;;22.50;82.50;;;;;;5091888;28;21061;-69
2021/06/01 11:00:00;;;;;;;3.10;2.57;;;22.70;80.50;;;;;;5091746;28;20831;-69
2021/06/01 11:02:26;;;;;;;3.13;2.17;;;23.00;82.00;;;;;;5092004;28;20552;-69
2021/06/01 11:05:00;;;;;;;3.80;2.90;;;23.10;76.00;;;;;;5091468;28;20569;-69
2021/06/01 11:07:39;;;;;;;3.10;2.80;;;23.10;78.20;;;;;;5091615;28;20485;-69
2021/06/01 11:10:06;;;;;;;3.90;2.97;;;23.10;79.70;;;;;;5091923;28;20480;-69
2021/06/01 11:12:43;;;;;;;2.93;2.50;;;23.20;79.90;;;;;;5091644;28;20465;-69
2021/06/01 11:15:33;;;;;;;2.50;2.30;;;23.30;79.90;;;;;;5091776;28;20461;-69
2021/06/01 11:18:35;;;;;;;2.67;2.47;;;23.50;81.60;;;;;;5088106;28;20569;-69
2021/06/01 11:21:16;;;;;;;3.23;2.50;;;23.60;76.50;;;;;;5090981;28;20480;-70
2021/06/01 11:33:23;;;;;;;2.70;2.50;;;23.60;78.30;;;;;;5091234;28;20543;-70
2021/06/01 11:35:59;;;;;;;4.13;2.60;;;23.80;79.40;;;;;;5071065;28;20499;-70
2021/06/01 11:38:30;;;;;;;3.43;2.63;;;23.90;74.30;;;;;;5069977;28;20484;-70
2021/06/01 11:41:19;;;;;;;2.73;2.27;;;23.90;74.00;;;;;;5070559;28;20932;-70
2021/06/01 11:43:45;;;;;;;3.33;2.60;;;23.70;77.10;;;;;;5071021;28;20473;-70
2021/06/01 11:46:24;;;;;;;2.90;2.60;;;23.80;78.70;;;;;;5070450;28;20961;-70
2021/06/01 11:51:36;;;;;;;2.97;2.30;;;23.90;74.80;;;;;;5070601;28;20481;-70
2021/06/01 11:54:05;;;;;;;3.40;2.63;;;23.90;80.80;;;;;;5070342;28;20459;-69
2021/06/01 11:57:04;;;;;;;6.53;2.40;;;24.10;78.80;;;;;;5070692;28;20465;-70
2021/06/01 12:02:24;;;;;;;4.97;2.60;;;24.50;78.50;;;;;;5070102;28;20839;-69
2021/06/01 12:05:00;;;;;;;3.73;2.37;;;24.50;76.80;;;;;;5070136;28;20454;-70
2021/06/01 12:18:42;;;;;;;2.97;2.70;;;24.60;78.90;;;;;;5070187;28;20473;-70
2021/06/01 12:21:12;;;;;;;2.90;2.70;;;24.70;80.80;;;;;;5069890;28;21027;-70
2021/06/01 12:23:39;;;;;;;2.83;2.53;;;24.90;79.80;;;;;;5070352;28;21032;-70
2021/06/01 12:26:14;;;;;;;3.00;2.80;;;24.90;77.90;;;;;;5070088;28;20463;-69
2021/06/01 12:32:10;;;;;;;2.73;2.53;;;24.70;74.90;;;;;;5069710;28;20892;-70
2021/06/01 12:34:56;;;;;;;3.63;2.83;;;24.80;77.60;;;;;;5070286;28;20493;-70
2021/06/01 12:43:05;;;;;;;4.73;2.70;;;25.00;75.30;;;;;;5109019;28;20959;-70
2021/06/01 12:45:53;;;;;;;3.17;2.80;;;25.00;76.30;;;;;;5110807;28;20463;-70
2021/06/01 13:14:04;;;;;;;3.40;2.77;;;25.20;80.20;;;;;;5108122;28;20468;-69
2021/06/01 13:19:29;;;;;;;5.90;2.90;;;25.10;79.00;;;;;;5093493;28;20530;-70
2021/06/01 13:22:01;;;;;;;3.20;2.80;;;25.10;75.40;;;;;;5093644;28;20477;-69
2021/06/01 13:30:58;;;;;;;2.83;2.57;;;25.00;76.50;;;;;;5054499;28;20520;-69
2021/06/01 13:36:32;;;;;;;2.80;2.60;;;25.20;76.90;;;;;;5091436;28;20436;-69
2021/06/01 13:39:01;;;;;;;2.63;2.43;;;25.40;79.00;;;;;;5091451;28;20488;-69
2021/06/01 13:47:11;;;;;;;2.87;2.57;;;25.30;72.90;;;;;;5091485;28;20441;-69
2021/06/01 13:49:40;;;;;;;4.33;2.40;;;25.30;72.40;;;;;;5091713;28;20445;-69
2021/06/01 13:52:19;;;;;;;3.30;2.83;;;25.30;73.20;;;;;;5091360;28;20936;-69
2021/06/01 13:57:36;;;;;;;3.33;2.60;;;25.40;75.40;;;;;;5091104;28;20444;-70
2021/06/01 14:00:11;;;;;;;4.80;2.80;;;25.50;75.80;;;;;;5089964;28;20488;-69
2021/06/01 14:19:54;;;;;;;2.20;2.10;;;25.10;72.60;;;;;;5091409;28;20492;-70
2021/06/01 14:36:47;;;;;;;5.23;2.70;;;25.70;69.90;;;;;;5091354;28;20467;-70
2021/06/01 14:39:29;;;;;;;4.00;2.70;;;25.50;70.30;;;;;;5090813;28;20486;-69
2021/06/01 15:05:06;;;;;;;3.00;2.57;;;25.10;72.60;;;;;;5110040;28;20475;-70
2021/06/01 15:08:19;;;;;;;4.40;2.90;;;24.90;73.20;;;;;;5110262;28;20540;-69
2021/06/01 15:11:12;;;;;;;3.10;2.90;;;24.80;72.80;;;;;;5109987;28;20657;-70
2021/06/01 15:50:02;;;;;;;3.17;2.70;;;24.70;73.90;;;;;;5059996;28;20446;-69
2021/06/01 15:53:20;;;;;;;3.30;2.43;;;24.50;70.30;;;;;;5054223;28;20459;-69
2021/06/01 16:21:30;;;;;;;3.50;2.80;;;24.20;72.50;;;;;;5059801;28;20968;-70
2021/06/01 16:29:49;;;;;;;2.70;2.50;;;24.00;74.20;;;;;;5068236;28;20442;-69
2021/06/01 16:32:53;;;;;;;3.50;2.27;;;24.00;74.50;;;;;;5068712;28;21188;-70
2021/06/01 16:43:46;;;;;;;4.53;2.80;;;23.50;72.40;;;;;;5068449;28;20528;-70
2021/06/01 17:05:35;;;;;;;3.13;2.47;;;23.10;73.40;;;;;;5067953;28;20818;-69
2021/06/01 17:11:16;;;;;;;4.40;2.47;;;23.10;71.90;;;;;;4984297;28;20883;-69
2021/06/01 17:13:50;;;;;;;3.10;2.57;;;22.90;72.80;;;;;;5045119;28;20983;-69
2021/06/01 17:16:24;;;;;;;3.30;3.10;;;22.80;72.30;;;;;;5058177;28;20512;-69
2021/06/01 17:19:18;;;;;;;3.13;2.83;;;22.70;73.10;;;;;;5058373;28;20479;-69